sensor_id;sensor_type;location;lat;lon;timestamp;temperature;humidity
45807;DHT22;31507;51.494;7.518;2023-08-21T00:00:51;17.00;99.90
45807;DHT22;31507;51.494;7.518;2023-08-21T00:03:16;17.00;99.90
45807;DHT22;31507;51.494;7.518;2023-08-21T00:05:42;17.00;99.90
45807;DHT22;31507;51.494;7.518;2023-08-21T00:08:08;16.90;99.90
45807;DHT22;31507;51.494;7.518;2023-08-21T00:10:37;16.90;99.90
45807;DHT22;31507;51.494;7.518;2023-08-21T00:13:03;16.90;99.90
45807;DHT22;31507;51.494;7.518;2023-08-21T00:15:29;16.80;99.90
45807;DHT22;31507;51.494;7.518;2023-08-21T00:17:56;16.80;99.90
45807;DHT22;31507;51.494;7.518;2023-08-21T00:20:22;16.80;99.90
45807;DHT22;31507;51.494;7.518;2023-08-21T00:22:47;16.70;99.90
45807;DHT22;31507;51.494;7.518;2023-08-21T00:25:13;16.70;99.90
45807;DHT22;31507;51.494;7.518;2023-08-21T00:27:38;16.60;99.90
45807;DHT22;31507;51.494;7.518;2023-08-21T00:30:05;16.60;99.90
45807;DHT22;31507;51.494;7.518;2023-08-21T00:32:30;16.60;99.90
45807;DHT22;31507;51.494;7.518;2023-08-21T00:34:56;16.60;99.90
45807;DHT22;31507;51.494;7.518;2023-08-21T00:37:21;16.60;99.90
45807;DHT22;31507;51.494;7.518;2023-08-21T00:39:47;16.60;99.90
45807;DHT22;31507;51.494;7.518;2023-08-21T00:42:13;16.70;99.90
45807;DHT22;31507;51.494;7.518;2023-08-21T00:44:38;16.60;99.90
45807;DHT22;31507;51.494;7.518;2023-08-21T00:47:04;16.70;99.90
45807;DHT22;31507;51.494;7.518;2023-08-21T00:49:30;16.60;99.90
45807;DHT22;31507;51.494;7.518;2023-08-21T00:51:56;16.70;99.90
45807;DHT22;31507;51.494;7.518;2023-08-21T00:54:22;16.60;99.90
45807;DHT22;31507;51.494;7.518;2023-08-21T00:56:47;16.50;99.90
45807;DHT22;31507;51.494;7.518;2023-08-21T00:59:13;16.50;99.90
45807;DHT22;31507;51.494;7.518;2023-08-21T01:01:40;16.50;99.90
45807;DHT22;31507;51.494;7.518;2023-08-21T01:04:06;16.50;99.90
45807;DHT22;31507;51.494;7.518;2023-08-21T01:06:32;16.50;99.90
45807;DHT22;31507;51.494;7.518;2023-08-21T01:09:03;16.40;99.90
45807;DHT22;31507;51.494;7.518;2023-08-21T01:11:38;16.40;99.90
45807;DHT22;31507;51.494;7.518;2023-08-21T01:14:29;16.30;99.90
45807;DHT22;31507;51.494;7.518;2023-08-21T01:16:59;16.20;99.90
45807;DHT22;31507;51.494;7.518;2023-08-21T01:19:41;16.20;99.90
45807;DHT22;31507;51.494;7.518;2023-08-21T01:22:07;16.10;99.90
45807;DHT22;31507;51.494;7.518;2023-08-21T01:24:32;16.20;99.90
45807;DHT22;31507;51.494;7.518;2023-08-21T01:26:58;16.20;99.90
45807;DHT22;31507;51.494;7.518;2023-08-21T01:29:25;16.10;99.90
45807;DHT22;31507;51.494;7.518;2023-08-21T01:32:14;16.10;99.90
45807;DHT22;31507;51.494;7.518;2023-08-21T01:34:46;16.10;99.90
45807;DHT22;31507;51.494;7.518;2023-08-21T01:37:13;16.00;99.90
45807;DHT22;31507;51.494;7.518;2023-08-21T01:39:39;16.10;99.90
45807;DHT22;31507;51.494;7.518;2023-08-21T01:42:05;16.00;99.90
45807;DHT22;31507;51.494;7.518;2023-08-21T01:44:30;16.00;99.90
45807;DHT22;31507;51.494;7.518;2023-08-21T01:46:56;16.00;99.90
45807;DHT22;31507;51.494;7.518;2023-08-21T01:49:21;16.00;99.90
45807;DHT22;31507;51.494;7.518;2023-08-21T01:51:47;16.00;99.90
45807;DHT22;31507;51.494;7.518;2023-08-21T01:54:13;15.90;99.90
45807;DHT22;31507;51.494;7.518;2023-08-21T01:56:38;15.90;99.90
45807;DHT22;31507;51.494;7.518;2023-08-21T01:59:05;15.90;99.90
45807;DHT22;31507;51.494;7.518;2023-08-21T02:01:32;15.90;99.90
45807;DHT22;31507;51.494;7.518;2023-08-21T02:03:58;15.90;99.90
45807;DHT22;31507;51.494;7.518;2023-08-21T02:06:23;15.80;99.90
45807;DHT22;31507;51.494;7.518;2023-08-21T02:08:49;15.80;99.90
45807;DHT22;31507;51.494;7.518;2023-08-21T02:11:15;15.80;99.90
45807;DHT22;31507;51.494;7.518;2023-08-21T02:13:41;15.80;99.90
45807;DHT22;31507;51.494;7.518;2023-08-21T02:16:06;15.80;99.90
45807;DHT22;31507;51.494;7.518;2023-08-21T02:18:32;15.80;99.90
45807;DHT22;31507;51.494;7.518;2023-08-21T02:21:00;15.80;99.90
45807;DHT22;31507;51.494;7.518;2023-08-21T02:23:26;15.70;99.90
45807;DHT22;31507;51.494;7.518;2023-08-21T02:25:53;15.70;99.90
45807;DHT22;31507;51.494;7.518;2023-08-21T02:28:19;15.70;99.90
45807;DHT22;31507;51.494;7.518;2023-08-21T02:30:45;15.70;99.90
45807;DHT22;31507;51.494;7.518;2023-08-21T02:33:11;15.70;99.90
45807;DHT22;31507;51.494;7.518;2023-08-21T02:35:36;15.70;99.90
45807;DHT22;31507;51.494;7.518;2023-08-21T02:38:02;15.70;99.90
45807;DHT22;31507;51.494;7.518;2023-08-21T02:40:28;15.60;99.90
45807;DHT22;31507;51.494;7.518;2023-08-21T02:42:53;15.60;99.90
45807;DHT22;31507;51.494;7.518;2023-08-21T02:45:19;15.60;99.90
45807;DHT22;31507;51.494;7.518;2023-08-21T02:47:44;15.60;99.90
45807;DHT22;31507;51.494;7.518;2023-08-21T02:50:10;15.60;99.90
45807;DHT22;31507;51.494;7.518;2023-08-21T02:52:37;15.60;99.90
45807;DHT22;31507;51.494;7.518;2023-08-21T02:55:03;15.50;99.90
45807;DHT22;31507;51.494;7.518;2023-08-21T02:57:29;15.50;99.90
45807;DHT22;31507;51.494;7.518;2023-08-21T02:59:56;15.50;99.90
45807;DHT22;31507;51.494;7.518;2023-08-21T03:02:22;15.50;99.90
45807;DHT22;31507;51.494;7.518;2023-08-21T03:04:48;15.50;99.90
45807;DHT22;31507;51.494;7.518;2023-08-21T03:07:14;15.50;99.90
45807;DHT22;31507;51.494;7.518;2023-08-21T03:09:40;15.50;99.90
45807;DHT22;31507;51.494;7.518;2023-08-21T03:12:07;15.50;99.90
45807;DHT22;31507;51.494;7.518;2023-08-21T03:14:33;15.50;99.90
45807;DHT22;31507;51.494;7.518;2023-08-21T03:16:59;15.60;99.90
45807;DHT22;31507;51.494;7.518;2023-08-21T03:19:24;15.60;99.90
45807;DHT22;31507;51.494;7.518;2023-08-21T03:21:50;15.70;99.90
45807;DHT22;31507;51.494;7.518;2023-08-21T03:24:16;15.70;99.90
45807;DHT22;31507;51.494;7.518;2023-08-21T03:26:42;15.70;99.90
45807;DHT22;31507;51.494;7.518;2023-08-21T03:29:08;15.80;99.90
45807;DHT22;31507;51.494;7.518;2023-08-21T03:31:33;15.80;99.90
45807;DHT22;31507;51.494;7.518;2023-08-21T03:33:59;15.80;99.90
45807;DHT22;31507;51.494;7.518;2023-08-21T03:36:25;15.80;99.90
45807;DHT22;31507;51.494;7.518;2023-08-21T03:38:59;15.80;99.90
45807;DHT22;31507;51.494;7.518;2023-08-21T03:41:25;15.90;99.90
45807;DHT22;31507;51.494;7.518;2023-08-21T03:43:51;15.90;99.90
45807;DHT22;31507;51.494;7.518;2023-08-21T03:46:17;16.00;99.90
45807;DHT22;31507;51.494;7.518;2023-08-21T03:48:42;16.00;99.90
45807;DHT22;31507;51.494;7.518;2023-08-21T03:51:08;16.00;99.90
45807;DHT22;31507;51.494;7.518;2023-08-21T03:53:34;15.90;99.90
45807;DHT22;31507;51.494;7.518;2023-08-21T03:55:59;15.90;99.90
45807;DHT22;31507;51.494;7.518;2023-08-21T03:58:25;15.80;99.90
45807;DHT22;31507;51.494;7.518;2023-08-21T04:00:52;15.80;99.90
45807;DHT22;31507;51.494;7.518;2023-08-21T04:03:18;15.70;99.90
45807;DHT22;31507;51.494;7.518;2023-08-21T04:05:43;15.60;99.90
45807;DHT22;31507;51.494;7.518;2023-08-21T04:08:09;15.60;99.90
45807;DHT22;31507;51.494;7.518;2023-08-21T04:10:34;15.60;99.90
45807;DHT22;31507;51.494;7.518;2023-08-21T04:13:00;15.60;99.90
45807;DHT22;31507;51.494;7.518;2023-08-21T04:15:26;15.50;99.90
45807;DHT22;31507;51.494;7.518;2023-08-21T04:17:52;15.50;99.90
45807;DHT22;31507;51.494;7.518;2023-08-21T04:20:19;15.50;99.90
45807;DHT22;31507;51.494;7.518;2023-08-21T04:22:45;15.50;99.90
45807;DHT22;31507;51.494;7.518;2023-08-21T04:25:11;15.60;99.90
45807;DHT22;31507;51.494;7.518;2023-08-21T04:27:37;15.60;99.90
45807;DHT22;31507;51.494;7.518;2023-08-21T04:30:02;15.50;99.90
45807;DHT22;31507;51.494;7.518;2023-08-21T04:32:28;15.50;99.90
45807;DHT22;31507;51.494;7.518;2023-08-21T04:34:54;15.40;99.90
45807;DHT22;31507;51.494;7.518;2023-08-21T04:37:20;15.40;99.90
45807;DHT22;31507;51.494;7.518;2023-08-21T04:39:49;15.40;99.90
45807;DHT22;31507;51.494;7.518;2023-08-21T04:42:15;15.40;99.90
45807;DHT22;31507;51.494;7.518;2023-08-21T04:44:40;15.40;99.90
45807;DHT22;31507;51.494;7.518;2023-08-21T04:47:26;15.50;99.90
45807;DHT22;31507;51.494;7.518;2023-08-21T04:49:53;15.50;99.90
45807;DHT22;31507;51.494;7.518;2023-08-21T04:52:19;15.50;99.90
45807;DHT22;31507;51.494;7.518;2023-08-21T04:54:47;15.50;99.90
45807;DHT22;31507;51.494;7.518;2023-08-21T04:57:12;15.60;99.90
45807;DHT22;31507;51.494;7.518;2023-08-21T04:59:38;15.70;99.90
45807;DHT22;31507;51.494;7.518;2023-08-21T05:02:04;15.80;99.90
45807;DHT22;31507;51.494;7.518;2023-08-21T05:04:30;16.00;99.90
45807;DHT22;31507;51.494;7.518;2023-08-21T05:06:55;16.20;99.90
45807;DHT22;31507;51.494;7.518;2023-08-21T05:09:21;16.30;99.90
45807;DHT22;31507;51.494;7.518;2023-08-21T05:11:48;16.40;99.90
45807;DHT22;31507;51.494;7.518;2023-08-21T05:14:13;16.40;99.90
45807;DHT22;31507;51.494;7.518;2023-08-21T05:16:39;16.40;99.90
45807;DHT22;31507;51.494;7.518;2023-08-21T05:19:05;16.40;99.90
45807;DHT22;31507;51.494;7.518;2023-08-21T05:21:30;16.40;99.90
45807;DHT22;31507;51.494;7.518;2023-08-21T05:23:56;16.30;99.90
45807;DHT22;31507;51.494;7.518;2023-08-21T05:26:22;16.40;99.90
45807;DHT22;31507;51.494;7.518;2023-08-21T05:28:47;16.30;99.90
45807;DHT22;31507;51.494;7.518;2023-08-21T05:31:13;16.30;99.90
45807;DHT22;31507;51.494;7.518;2023-08-21T05:33:38;16.30;99.90
45807;DHT22;31507;51.494;7.518;2023-08-21T05:36:04;16.30;99.90
45807;DHT22;31507;51.494;7.518;2023-08-21T05:38:31;16.40;99.90
45807;DHT22;31507;51.494;7.518;2023-08-21T05:40:56;16.50;99.90
45807;DHT22;31507;51.494;7.518;2023-08-21T05:43:23;16.60;99.90
45807;DHT22;31507;51.494;7.518;2023-08-21T05:45:49;16.70;99.90
45807;DHT22;31507;51.494;7.518;2023-08-21T05:48:15;16.80;99.90
45807;DHT22;31507;51.494;7.518;2023-08-21T05:50:42;17.00;99.90
45807;DHT22;31507;51.494;7.518;2023-08-21T05:53:07;17.10;99.90
45807;DHT22;31507;51.494;7.518;2023-08-21T05:55:33;17.10;99.90
45807;DHT22;31507;51.494;7.518;2023-08-21T05:57:59;17.20;99.90
45807;DHT22;31507;51.494;7.518;2023-08-21T06:00:24;17.40;99.90
45807;DHT22;31507;51.494;7.518;2023-08-21T06:02:50;17.50;99.90
45807;DHT22;31507;51.494;7.518;2023-08-21T06:05:16;17.70;99.90
45807;DHT22;31507;51.494;7.518;2023-08-21T06:07:41;17.70;99.90
45807;DHT22;31507;51.494;7.518;2023-08-21T06:10:08;18.20;99.90
45807;DHT22;31507;51.494;7.518;2023-08-21T06:12:37;18.20;99.90
45807;DHT22;31507;51.494;7.518;2023-08-21T06:15:03;18.20;99.90
45807;DHT22;31507;51.494;7.518;2023-08-21T06:17:28;18.30;99.90
45807;DHT22;31507;51.494;7.518;2023-08-21T06:19:54;18.30;99.90
45807;DHT22;31507;51.494;7.518;2023-08-21T06:22:21;18.40;99.90
45807;DHT22;31507;51.494;7.518;2023-08-21T06:24:46;18.50;99.90
45807;DHT22;31507;51.494;7.518;2023-08-21T06:27:12;18.80;99.90
45807;DHT22;31507;51.494;7.518;2023-08-21T06:29:37;19.00;99.90
45807;DHT22;31507;51.494;7.518;2023-08-21T06:32:05;19.20;99.90
45807;DHT22;31507;51.494;7.518;2023-08-21T06:34:31;19.50;99.90
45807;DHT22;31507;51.494;7.518;2023-08-21T06:36:56;19.60;99.90
45807;DHT22;31507;51.494;7.518;2023-08-21T06:39:22;19.70;99.90
45807;DHT22;31507;51.494;7.518;2023-08-21T06:41:48;19.70;99.90
45807;DHT22;31507;51.494;7.518;2023-08-21T06:44:13;19.70;99.90
45807;DHT22;31507;51.494;7.518;2023-08-21T06:46:39;19.80;99.90
45807;DHT22;31507;51.494;7.518;2023-08-21T06:49:05;20.10;99.90
45807;DHT22;31507;51.494;7.518;2023-08-21T06:51:30;20.30;99.90
45807;DHT22;31507;51.494;7.518;2023-08-21T06:53:56;21.10;99.90
45807;DHT22;31507;51.494;7.518;2023-08-21T06:56:22;21.70;99.90
45807;DHT22;31507;51.494;7.518;2023-08-21T06:58:47;21.70;99.90
45807;DHT22;31507;51.494;7.518;2023-08-21T07:01:13;21.40;99.90
45807;DHT22;31507;51.494;7.518;2023-08-21T07:03:38;21.10;99.90
45807;DHT22;31507;51.494;7.518;2023-08-21T07:06:04;20.80;99.90
45807;DHT22;31507;51.494;7.518;2023-08-21T07:08:30;20.70;99.90
45807;DHT22;31507;51.494;7.518;2023-08-21T07:10:55;20.70;99.90
45807;DHT22;31507;51.494;7.518;2023-08-21T07:13:21;21.20;99.90
45807;DHT22;31507;51.494;7.518;2023-08-21T07:15:47;21.90;99.90
45807;DHT22;31507;51.494;7.518;2023-08-21T07:18:13;22.30;99.90
45807;DHT22;31507;51.494;7.518;2023-08-21T07:20:39;22.70;99.90
45807;DHT22;31507;51.494;7.518;2023-08-21T07:23:04;23.00;99.90
45807;DHT22;31507;51.494;7.518;2023-08-21T07:25:30;23.50;99.90
45807;DHT22;31507;51.494;7.518;2023-08-21T07:27:56;23.70;99.90
45807;DHT22;31507;51.494;7.518;2023-08-21T07:30:22;23.80;99.90
45807;DHT22;31507;51.494;7.518;2023-08-21T07:32:48;23.90;99.90
45807;DHT22;31507;51.494;7.518;2023-08-21T07:35:14;24.00;99.90
45807;DHT22;31507;51.494;7.518;2023-08-21T07:37:44;23.80;99.90
45807;DHT22;31507;51.494;7.518;2023-08-21T07:40:10;24.00;99.90
45807;DHT22;31507;51.494;7.518;2023-08-21T07:42:35;24.20;99.90
45807;DHT22;31507;51.494;7.518;2023-08-21T07:45:01;24.60;99.90
45807;DHT22;31507;51.494;7.518;2023-08-21T07:47:27;25.00;99.90
45807;DHT22;31507;51.494;7.518;2023-08-21T07:49:53;25.00;99.90
45807;DHT22;31507;51.494;7.518;2023-08-21T07:52:19;24.80;99.90
45807;DHT22;31507;51.494;7.518;2023-08-21T07:54:45;24.70;99.90
45807;DHT22;31507;51.494;7.518;2023-08-21T07:57:11;25.00;99.90
45807;DHT22;31507;51.494;7.518;2023-08-21T07:59:37;24.70;99.90
45807;DHT22;31507;51.494;7.518;2023-08-21T08:02:03;24.50;99.90
45807;DHT22;31507;51.494;7.518;2023-08-21T08:04:30;24.10;99.90
45807;DHT22;31507;51.494;7.518;2023-08-21T08:06:55;23.90;99.90
45807;DHT22;31507;51.494;7.518;2023-08-21T08:09:21;23.80;99.90
45807;DHT22;31507;51.494;7.518;2023-08-21T08:11:46;23.70;99.90
45807;DHT22;31507;51.494;7.518;2023-08-21T08:14:12;23.60;99.90
45807;DHT22;31507;51.494;7.518;2023-08-21T08:16:38;23.60;99.90
45807;DHT22;31507;51.494;7.518;2023-08-21T08:19:03;23.60;99.90
45807;DHT22;31507;51.494;7.518;2023-08-21T08:21:29;23.50;99.90
45807;DHT22;31507;51.494;7.518;2023-08-21T08:23:56;23.60;99.90
45807;DHT22;31507;51.494;7.518;2023-08-21T08:26:21;24.00;99.90
45807;DHT22;31507;51.494;7.518;2023-08-21T08:28:47;24.20;99.90
45807;DHT22;31507;51.494;7.518;2023-08-21T08:31:17;24.40;99.90
45807;DHT22;31507;51.494;7.518;2023-08-21T08:33:43;24.50;99.90
45807;DHT22;31507;51.494;7.518;2023-08-21T08:36:08;24.30;99.90
45807;DHT22;31507;51.494;7.518;2023-08-21T08:38:34;24.20;99.90
45807;DHT22;31507;51.494;7.518;2023-08-21T08:41:02;24.20;99.90
45807;DHT22;31507;51.494;7.518;2023-08-21T08:43:28;24.40;99.90
45807;DHT22;31507;51.494;7.518;2023-08-21T08:45:57;24.60;99.90
45807;DHT22;31507;51.494;7.518;2023-08-21T08:48:24;24.80;99.90
45807;DHT22;31507;51.494;7.518;2023-08-21T08:50:51;24.90;99.90
45807;DHT22;31507;51.494;7.518;2023-08-21T08:53:18;25.10;99.90
45807;DHT22;31507;51.494;7.518;2023-08-21T08:55:44;25.30;99.90
45807;DHT22;31507;51.494;7.518;2023-08-21T08:58:10;25.30;99.90
45807;DHT22;31507;51.494;7.518;2023-08-21T09:00:37;25.40;99.90
45807;DHT22;31507;51.494;7.518;2023-08-21T09:03:03;25.60;99.90
45807;DHT22;31507;51.494;7.518;2023-08-21T09:05:29;25.70;99.90
45807;DHT22;31507;51.494;7.518;2023-08-21T09:08:11;25.80;99.90
45807;DHT22;31507;51.494;7.518;2023-08-21T09:10:38;25.70;99.90
45807;DHT22;31507;51.494;7.518;2023-08-21T09:13:15;25.90;99.90
45807;DHT22;31507;51.494;7.518;2023-08-21T09:15:53;26.00;99.90
45807;DHT22;31507;51.494;7.518;2023-08-21T09:18:19;26.10;99.90
45807;DHT22;31507;51.494;7.518;2023-08-21T09:20:45;26.10;99.90
45807;DHT22;31507;51.494;7.518;2023-08-21T09:23:15;26.20;99.90
45807;DHT22;31507;51.494;7.518;2023-08-21T09:25:47;26.40;99.90
45807;DHT22;31507;51.494;7.518;2023-08-21T09:28:13;26.40;99.90
45807;DHT22;31507;51.494;7.518;2023-08-21T09:30:53;26.70;99.90
45807;DHT22;31507;51.494;7.518;2023-08-21T09:33:20;26.80;99.90
45807;DHT22;31507;51.494;7.518;2023-08-21T09:35:47;26.90;99.90
45807;DHT22;31507;51.494;7.518;2023-08-21T09:38:13;26.90;99.90
45807;DHT22;31507;51.494;7.518;2023-08-21T09:40:41;27.00;99.90
45807;DHT22;31507;51.494;7.518;2023-08-21T09:43:08;27.00;99.90
45807;DHT22;31507;51.494;7.518;2023-08-21T09:45:35;27.10;99.90
45807;DHT22;31507;51.494;7.518;2023-08-21T09:48:02;27.30;99.90
45807;DHT22;31507;51.494;7.518;2023-08-21T09:50:29;27.60;99.90
45807;DHT22;31507;51.494;7.518;2023-08-21T09:52:56;27.80;99.90
45807;DHT22;31507;51.494;7.518;2023-08-21T09:55:24;27.90;99.90
45807;DHT22;31507;51.494;7.518;2023-08-21T09:57:52;27.90;99.90
45807;DHT22;31507;51.494;7.518;2023-08-21T10:00:30;27.90;99.90
45807;DHT22;31507;51.494;7.518;2023-08-21T10:02:59;27.90;99.90
45807;DHT22;31507;51.494;7.518;2023-08-21T10:05:25;28.00;99.90
45807;DHT22;31507;51.494;7.518;2023-08-21T10:07:54;27.80;99.90
45807;DHT22;31507;51.494;7.518;2023-08-21T10:10:21;27.50;99.90
45807;DHT22;31507;51.494;7.518;2023-08-21T10:12:48;27.70;99.90
45807;DHT22;31507;51.494;7.518;2023-08-21T10:15:14;27.90;99.90
45807;DHT22;31507;51.494;7.518;2023-08-21T10:17:49;27.80;99.90
45807;DHT22;31507;51.494;7.518;2023-08-21T10:20:21;27.90;99.90
45807;DHT22;31507;51.494;7.518;2023-08-21T10:22:52;27.70;99.90
45807;DHT22;31507;51.494;7.518;2023-08-21T10:25:23;27.80;99.90
45807;DHT22;31507;51.494;7.518;2023-08-21T10:27:55;28.10;99.90
45807;DHT22;31507;51.494;7.518;2023-08-21T10:30:26;28.50;99.90
45807;DHT22;31507;51.494;7.518;2023-08-21T10:32:54;28.80;99.90
45807;DHT22;31507;51.494;7.518;2023-08-21T10:35:24;28.50;99.90
45807;DHT22;31507;51.494;7.518;2023-08-21T10:38:16;27.80;99.90
45807;DHT22;31507;51.494;7.518;2023-08-21T10:41:07;27.50;99.90
45807;DHT22;31507;51.494;7.518;2023-08-21T10:43:41;28.10;99.90
45807;DHT22;31507;51.494;7.518;2023-08-21T10:46:09;28.20;99.90
45807;DHT22;31507;51.494;7.518;2023-08-21T10:48:35;28.20;99.90
45807;DHT22;31507;51.494;7.518;2023-08-21T10:51:03;28.00;99.90
45807;DHT22;31507;51.494;7.518;2023-08-21T10:53:32;28.10;99.90
45807;DHT22;31507;51.494;7.518;2023-08-21T10:56:03;28.40;99.90
45807;DHT22;31507;51.494;7.518;2023-08-21T10:58:37;28.20;99.90
45807;DHT22;31507;51.494;7.518;2023-08-21T11:01:03;27.90;99.90
45807;DHT22;31507;51.494;7.518;2023-08-21T11:03:29;28.00;99.90
45807;DHT22;31507;51.494;7.518;2023-08-21T11:06:06;28.10;99.90
45807;DHT22;31507;51.494;7.518;2023-08-21T11:08:33;28.30;99.90
45807;DHT22;31507;51.494;7.518;2023-08-21T11:11:03;28.40;99.90
45807;DHT22;31507;51.494;7.518;2023-08-21T11:13:29;28.10;99.90
45807;DHT22;31507;51.494;7.518;2023-08-21T11:16:03;28.00;99.90
45807;DHT22;31507;51.494;7.518;2023-08-21T11:18:38;27.90;99.90
45807;DHT22;31507;51.494;7.518;2023-08-21T11:21:08;28.10;99.90
45807;DHT22;31507;51.494;7.518;2023-08-21T11:23:36;28.50;99.90
45807;DHT22;31507;51.494;7.518;2023-08-21T11:26:03;28.70;99.90
45807;DHT22;31507;51.494;7.518;2023-08-21T11:28:29;29.00;99.90
45807;DHT22;31507;51.494;7.518;2023-08-21T11:30:56;29.10;99.90
45807;DHT22;31507;51.494;7.518;2023-08-21T11:33:22;28.60;99.90
45807;DHT22;31507;51.494;7.518;2023-08-21T11:35:48;28.30;99.90
45807;DHT22;31507;51.494;7.518;2023-08-21T11:38:21;27.80;99.90
45807;DHT22;31507;51.494;7.518;2023-08-21T11:40:58;27.70;99.90
45807;DHT22;31507;51.494;7.518;2023-08-21T11:43:37;27.90;99.90
45807;DHT22;31507;51.494;7.518;2023-08-21T11:46:07;28.40;99.90
45807;DHT22;31507;51.494;7.518;2023-08-21T11:48:35;28.70;99.90
45807;DHT22;31507;51.494;7.518;2023-08-21T11:51:01;29.20;99.90
45807;DHT22;31507;51.494;7.518;2023-08-21T11:53:41;29.30;99.90
45807;DHT22;31507;51.494;7.518;2023-08-21T11:56:17;29.60;99.70
45807;DHT22;31507;51.494;7.518;2023-08-21T11:58:45;29.60;99.90
45807;DHT22;31507;51.494;7.518;2023-08-21T12:01:15;29.30;99.90
45807;DHT22;31507;51.494;7.518;2023-08-21T12:03:41;28.70;99.90
45807;DHT22;31507;51.494;7.518;2023-08-21T12:06:08;28.30;99.90
45807;DHT22;31507;51.494;7.518;2023-08-21T12:08:34;27.90;99.90
45807;DHT22;31507;51.494;7.518;2023-08-21T12:11:00;28.10;99.90
45807;DHT22;31507;51.494;7.518;2023-08-21T12:13:26;28.30;99.90
45807;DHT22;31507;51.494;7.518;2023-08-21T12:15:51;28.60;99.90
45807;DHT22;31507;51.494;7.518;2023-08-21T12:18:17;29.00;99.90
45807;DHT22;31507;51.494;7.518;2023-08-21T12:20:42;29.30;99.90
45807;DHT22;31507;51.494;7.518;2023-08-21T12:23:08;30.00;99.90
45807;DHT22;31507;51.494;7.518;2023-08-21T12:25:34;30.40;99.90
45807;DHT22;31507;51.494;7.518;2023-08-21T12:27:59;30.20;99.70
45807;DHT22;31507;51.494;7.518;2023-08-21T12:30:25;29.60;99.80
45807;DHT22;31507;51.494;7.518;2023-08-21T12:32:51;28.80;99.90
45807;DHT22;31507;51.494;7.518;2023-08-21T12:35:17;28.00;99.90
45807;DHT22;31507;51.494;7.518;2023-08-21T12:37:55;27.50;99.90
45807;DHT22;31507;51.494;7.518;2023-08-21T12:40:21;27.20;99.90
45807;DHT22;31507;51.494;7.518;2023-08-21T12:42:47;27.20;99.90
45807;DHT22;31507;51.494;7.518;2023-08-21T12:45:12;27.50;99.90
45807;DHT22;31507;51.494;7.518;2023-08-21T12:47:41;27.90;99.90
45807;DHT22;31507;51.494;7.518;2023-08-21T12:50:07;28.20;99.90
45807;DHT22;31507;51.494;7.518;2023-08-21T12:52:33;27.90;99.90
45807;DHT22;31507;51.494;7.518;2023-08-21T12:54:58;27.90;99.90
45807;DHT22;31507;51.494;7.518;2023-08-21T12:57:27;28.10;99.90
45807;DHT22;31507;51.494;7.518;2023-08-21T12:59:52;28.20;99.90
45807;DHT22;31507;51.494;7.518;2023-08-21T13:02:18;28.40;99.90
45807;DHT22;31507;51.494;7.518;2023-08-21T13:04:47;28.70;99.90
45807;DHT22;31507;51.494;7.518;2023-08-21T13:07:12;29.10;99.90
45807;DHT22;31507;51.494;7.518;2023-08-21T13:09:39;29.30;99.80
45807;DHT22;31507;51.494;7.518;2023-08-21T13:12:05;29.30;99.80
45807;DHT22;31507;51.494;7.518;2023-08-21T13:14:31;29.20;99.60
45807;DHT22;31507;51.494;7.518;2023-08-21T13:16:56;29.10;99.30
45807;DHT22;31507;51.494;7.518;2023-08-21T13:19:22;29.00;99.40
45807;DHT22;31507;51.494;7.518;2023-08-21T13:21:48;29.20;99.50
45807;DHT22;31507;51.494;7.518;2023-08-21T13:24:13;29.30;99.40
45807;DHT22;31507;51.494;7.518;2023-08-21T13:26:39;29.40;99.30
45807;DHT22;31507;51.494;7.518;2023-08-21T13:29:05;29.60;99.20
45807;DHT22;31507;51.494;7.518;2023-08-21T13:31:32;29.70;98.90
45807;DHT22;31507;51.494;7.518;2023-08-21T13:33:58;30.10;99.00
45807;DHT22;31507;51.494;7.518;2023-08-21T13:36:24;30.00;98.10
45807;DHT22;31507;51.494;7.518;2023-08-21T13:38:49;29.50;98.30
45807;DHT22;31507;51.494;7.518;2023-08-21T13:41:15;29.10;98.40
45807;DHT22;31507;51.494;7.518;2023-08-21T13:43:40;28.60;98.60
45807;DHT22;31507;51.494;7.518;2023-08-21T13:46:06;28.20;98.90
45807;DHT22;31507;51.494;7.518;2023-08-21T13:48:32;27.70;99.50
45807;DHT22;31507;51.494;7.518;2023-08-21T13:50:58;28.10;99.60
45807;DHT22;31507;51.494;7.518;2023-08-21T13:53:24;28.50;99.40
45807;DHT22;31507;51.494;7.518;2023-08-21T13:55:50;28.80;99.30
45807;DHT22;31507;51.494;7.518;2023-08-21T13:58:16;29.10;99.10
45807;DHT22;31507;51.494;7.518;2023-08-21T14:00:41;29.30;98.80
45807;DHT22;31507;51.494;7.518;2023-08-21T14:03:07;29.30;98.40
45807;DHT22;31507;51.494;7.518;2023-08-21T14:05:32;29.30;98.30
45807;DHT22;31507;51.494;7.518;2023-08-21T14:07:59;29.30;98.40
45807;DHT22;31507;51.494;7.518;2023-08-21T14:10:25;28.80;98.00
45807;DHT22;31507;51.494;7.518;2023-08-21T14:12:51;28.50;98.20
45807;DHT22;31507;51.494;7.518;2023-08-21T14:15:17;28.60;99.10
45807;DHT22;31507;51.494;7.518;2023-08-21T14:17:44;28.40;99.00
45807;DHT22;31507;51.494;7.518;2023-08-21T14:20:10;27.80;99.40
45807;DHT22;31507;51.494;7.518;2023-08-21T14:22:37;27.40;99.50
45807;DHT22;31507;51.494;7.518;2023-08-21T14:25:03;27.40;99.50
45807;DHT22;31507;51.494;7.518;2023-08-21T14:27:32;27.30;99.70
45807;DHT22;31507;51.494;7.518;2023-08-21T14:29:58;27.10;99.90
45807;DHT22;31507;51.494;7.518;2023-08-21T14:32:24;26.70;99.90
45807;DHT22;31507;51.494;7.518;2023-08-21T14:34:50;26.60;99.90
45807;DHT22;31507;51.494;7.518;2023-08-21T14:37:18;26.50;99.90
45807;DHT22;31507;51.494;7.518;2023-08-21T14:39:44;26.50;99.90
45807;DHT22;31507;51.494;7.518;2023-08-21T14:42:10;26.50;99.90
45807;DHT22;31507;51.494;7.518;2023-08-21T14:44:35;26.90;99.90
45807;DHT22;31507;51.494;7.518;2023-08-21T14:47:01;27.30;99.90
45807;DHT22;31507;51.494;7.518;2023-08-21T14:49:26;27.60;99.90
45807;DHT22;31507;51.494;7.518;2023-08-21T14:51:54;27.80;99.90
45807;DHT22;31507;51.494;7.518;2023-08-21T14:54:19;28.00;99.90
45807;DHT22;31507;51.494;7.518;2023-08-21T14:56:45;28.40;99.90
45807;DHT22;31507;51.494;7.518;2023-08-21T14:59:11;28.70;99.90
45807;DHT22;31507;51.494;7.518;2023-08-21T15:01:37;29.00;99.90
45807;DHT22;31507;51.494;7.518;2023-08-21T15:04:05;29.10;99.20
45807;DHT22;31507;51.494;7.518;2023-08-21T15:06:31;29.10;98.80
45807;DHT22;31507;51.494;7.518;2023-08-21T15:08:56;29.00;98.90
45807;DHT22;31507;51.494;7.518;2023-08-21T15:11:22;29.00;98.80
45807;DHT22;31507;51.494;7.518;2023-08-21T15:13:47;29.30;98.50
45807;DHT22;31507;51.494;7.518;2023-08-21T15:16:13;29.30;98.00
45807;DHT22;31507;51.494;7.518;2023-08-21T15:18:40;28.80;98.30
45807;DHT22;31507;51.494;7.518;2023-08-21T15:21:05;28.60;98.80
45807;DHT22;31507;51.494;7.518;2023-08-21T15:23:31;28.50;98.80
45807;DHT22;31507;51.494;7.518;2023-08-21T15:25:56;28.10;99.10
45807;DHT22;31507;51.494;7.518;2023-08-21T15:28:22;27.60;99.60